sensor_id;sensor_type;location;lat;lon;timestamp;P1;durP1;ratioP1;P2;durP2;ratioP2
16063;SDS011;8136;53.172;8.256;2023-07-13T00:00:44;5.17;;;2.50;;
16063;SDS011;8136;53.172;8.256;2023-07-13T00:03:12;2.53;;;2.30;;
16063;SDS011;8136;53.172;8.256;2023-07-13T00:05:39;3.03;;;2.53;;
16063;SDS011;8136;53.172;8.256;2023-07-13T00:08:06;3.27;;;2.40;;
16063;SDS011;8136;53.172;8.256;2023-07-13T00:10:33;3.60;;;3.00;;
16063;SDS011;8136;53.172;8.256;2023-07-13T00:13:00;3.10;;;2.40;;
16063;SDS011;8136;53.172;8.256;2023-07-13T00:15:27;4.43;;;2.47;;
16063;SDS011;8136;53.172;8.256;2023-07-13T00:17:56;3.77;;;2.30;;
16063;SDS011;8136;53.172;8.256;2023-07-13T00:20:27;3.47;;;2.30;;
16063;SDS011;8136;53.172;8.256;2023-07-13T00:22:54;6.40;;;2.43;;
16063;SDS011;8136;53.172;8.256;2023-07-13T00:25:21;2.90;;;2.10;;
16063;SDS011;8136;53.172;8.256;2023-07-13T00:27:49;3.17;;;2.40;;
16063;SDS011;8136;53.172;8.256;2023-07-13T00:30:16;4.53;;;2.50;;
16063;SDS011;8136;53.172;8.256;2023-07-13T00:32:43;2.90;;;2.13;;
16063;SDS011;8136;53.172;8.256;2023-07-13T00:35:12;4.30;;;2.73;;
16063;SDS011;8136;53.172;8.256;2023-07-13T00:37:41;5.33;;;2.43;;
16063;SDS011;8136;53.172;8.256;2023-07-13T00:40:09;5.07;;;2.50;;
16063;SDS011;8136;53.172;8.256;2023-07-13T00:42:37;3.47;;;2.33;;
16063;SDS011;8136;53.172;8.256;2023-07-13T00:45:05;2.83;;;2.30;;
16063;SDS011;8136;53.172;8.256;2023-07-13T00:47:53;3.60;;;2.20;;
16063;SDS011;8136;53.172;8.256;2023-07-13T00:50:21;4.03;;;2.30;;
16063;SDS011;8136;53.172;8.256;2023-07-13T00:52:51;2.80;;;1.93;;
16063;SDS011;8136;53.172;8.256;2023-07-13T00:55:23;4.27;;;2.10;;
16063;SDS011;8136;53.172;8.256;2023-07-13T00:57:49;3.53;;;2.40;;
16063;SDS011;8136;53.172;8.256;2023-07-13T01:00:18;2.57;;;2.13;;
16063;SDS011;8136;53.172;8.256;2023-07-13T01:02:48;7.77;;;2.40;;
16063;SDS011;8136;53.172;8.256;2023-07-13T01:05:16;3.27;;;2.30;;
16063;SDS011;8136;53.172;8.256;2023-07-13T01:07:46;3.00;;;1.97;;
16063;SDS011;8136;53.172;8.256;2023-07-13T01:10:16;3.10;;;2.10;;
16063;SDS011;8136;53.172;8.256;2023-07-13T01:12:43;5.70;;;1.83;;
16063;SDS011;8136;53.172;8.256;2023-07-13T01:18:02;2.83;;;1.80;;
16063;SDS011;8136;53.172;8.256;2023-07-13T01:20:29;7.10;;;2.00;;
16063;SDS011;8136;53.172;8.256;2023-07-13T01:23:02;5.70;;;2.23;;
16063;SDS011;8136;53.172;8.256;2023-07-13T01:25:31;3.83;;;1.87;;
16063;SDS011;8136;53.172;8.256;2023-07-13T01:27:58;5.20;;;1.80;;
16063;SDS011;8136;53.172;8.256;2023-07-13T01:30:25;4.97;;;1.90;;
16063;SDS011;8136;53.172;8.256;2023-07-13T01:32:51;6.33;;;1.87;;
16063;SDS011;8136;53.172;8.256;2023-07-13T01:35:18;2.23;;;1.43;;
16063;SDS011;8136;53.172;8.256;2023-07-13T01:37:45;3.27;;;2.03;;
16063;SDS011;8136;53.172;8.256;2023-07-13T01:40:13;2.83;;;1.90;;
16063;SDS011;8136;53.172;8.256;2023-07-13T01:42:40;4.07;;;1.93;;
16063;SDS011;8136;53.172;8.256;2023-07-13T01:45:07;2.73;;;1.80;;
16063;SDS011;8136;53.172;8.256;2023-07-13T01:47:34;3.53;;;2.13;;
16063;SDS011;8136;53.172;8.256;2023-07-13T01:50:00;5.63;;;1.80;;
16063;SDS011;8136;53.172;8.256;2023-07-13T01:52:27;3.33;;;2.00;;
16063;SDS011;8136;53.172;8.256;2023-07-13T01:54:54;7.00;;;1.90;;
16063;SDS011;8136;53.172;8.256;2023-07-13T01:57:22;4.40;;;1.70;;
16063;SDS011;8136;53.172;8.256;2023-07-13T01:59:49;4.67;;;2.07;;
16063;SDS011;8136;53.172;8.256;2023-07-13T02:02:15;5.57;;;2.10;;
16063;SDS011;8136;53.172;8.256;2023-07-13T02:04:42;4.47;;;2.37;;
16063;SDS011;8136;53.172;8.256;2023-07-13T02:07:09;6.57;;;2.10;;
16063;SDS011;8136;53.172;8.256;2023-07-13T02:09:36;5.70;;;2.30;;
16063;SDS011;8136;53.172;8.256;2023-07-13T02:12:03;6.73;;;2.07;;
16063;SDS011;8136;53.172;8.256;2023-07-13T02:14:31;2.93;;;2.00;;
16063;SDS011;8136;53.172;8.256;2023-07-13T02:16:58;6.83;;;2.13;;
16063;SDS011;8136;53.172;8.256;2023-07-13T02:19:25;5.23;;;2.13;;
16063;SDS011;8136;53.172;8.256;2023-07-13T02:21:52;3.13;;;2.00;;
16063;SDS011;8136;53.172;8.256;2023-07-13T02:24:19;6.37;;;2.87;;
16063;SDS011;8136;53.172;8.256;2023-07-13T02:26:46;4.37;;;1.90;;
16063;SDS011;8136;53.172;8.256;2023-07-13T02:29:13;4.07;;;2.30;;
16063;SDS011;8136;53.172;8.256;2023-07-13T02:31:41;2.37;;;2.07;;
16063;SDS011;8136;53.172;8.256;2023-07-13T02:34:08;5.00;;;2.10;;
16063;SDS011;8136;53.172;8.256;2023-07-13T02:36:35;4.43;;;2.43;;
16063;SDS011;8136;53.172;8.256;2023-07-13T02:39:02;3.47;;;2.07;;
16063;SDS011;8136;53.172;8.256;2023-07-13T02:41:30;4.70;;;2.10;;
16063;SDS011;8136;53.172;8.256;2023-07-13T02:43:57;4.60;;;2.30;;
16063;SDS011;8136;53.172;8.256;2023-07-13T02:46:28;6.73;;;2.60;;
16063;SDS011;8136;53.172;8.256;2023-07-13T02:48:57;9.03;;;1.97;;
16063;SDS011;8136;53.172;8.256;2023-07-13T02:51:23;5.67;;;2.03;;
16063;SDS011;8136;53.172;8.256;2023-07-13T02:53:50;9.17;;;2.23;;
16063;SDS011;8136;53.172;8.256;2023-07-13T02:56:17;4.57;;;2.43;;
16063;SDS011;8136;53.172;8.256;2023-07-13T02:58:45;6.13;;;2.10;;
16063;SDS011;8136;53.172;8.256;2023-07-13T03:01:12;2.97;;;1.93;;
16063;SDS011;8136;53.172;8.256;2023-07-13T03:03:43;5.87;;;2.57;;
16063;SDS011;8136;53.172;8.256;2023-07-13T03:06:12;5.20;;;2.20;;
16063;SDS011;8136;53.172;8.256;2023-07-13T03:08:39;6.23;;;2.50;;
16063;SDS011;8136;53.172;8.256;2023-07-13T03:11:07;5.47;;;2.33;;
16063;SDS011;8136;53.172;8.256;2023-07-13T03:13:36;2.90;;;1.90;;
16063;SDS011;8136;53.172;8.256;2023-07-13T03:16:03;7.40;;;2.10;;
16063;SDS011;8136;53.172;8.256;2023-07-13T03:18:30;4.93;;;2.20;;
16063;SDS011;8136;53.172;8.256;2023-07-13T03:20:57;4.90;;;2.60;;
16063;SDS011;8136;53.172;8.256;2023-07-13T03:23:25;4.60;;;2.23;;
16063;SDS011;8136;53.172;8.256;2023-07-13T03:26:00;3.30;;;2.53;;
16063;SDS011;8136;53.172;8.256;2023-07-13T03:28:27;6.30;;;2.43;;
16063;SDS011;8136;53.172;8.256;2023-07-13T03:30:58;3.83;;;1.80;;
16063;SDS011;8136;53.172;8.256;2023-07-13T03:33:26;3.40;;;1.67;;
16063;SDS011;8136;53.172;8.256;2023-07-13T03:35:53;8.23;;;1.80;;
16063;SDS011;8136;53.172;8.256;2023-07-13T03:38:19;7.07;;;2.23;;
16063;SDS011;8136;53.172;8.256;2023-07-13T03:40:48;5.03;;;2.30;;
16063;SDS011;8136;53.172;8.256;2023-07-13T03:43:15;5.53;;;2.07;;
16063;SDS011;8136;53.172;8.256;2023-07-13T03:45:41;6.90;;;2.43;;
16063;SDS011;8136;53.172;8.256;2023-07-13T03:48:08;2.20;;;1.67;;
16063;SDS011;8136;53.172;8.256;2023-07-13T03:50:35;4.53;;;1.90;;
16063;SDS011;8136;53.172;8.256;2023-07-13T03:53:02;2.93;;;1.70;;
16063;SDS011;8136;53.172;8.256;2023-07-13T03:55:29;4.30;;;2.00;;
16063;SDS011;8136;53.172;8.256;2023-07-13T03:57:59;5.80;;;2.33;;
16063;SDS011;8136;53.172;8.256;2023-07-13T04:00:47;4.13;;;1.70;;
16063;SDS011;8136;53.172;8.256;2023-07-13T04:03:15;5.83;;;1.90;;
16063;SDS011;8136;53.172;8.256;2023-07-13T04:05:42;5.13;;;1.90;;
16063;SDS011;8136;53.172;8.256;2023-07-13T04:08:09;8.10;;;2.13;;
16063;SDS011;8136;53.172;8.256;2023-07-13T04:10:36;2.90;;;1.90;;
16063;SDS011;8136;53.172;8.256;2023-07-13T04:13:03;7.43;;;2.07;;
16063;SDS011;8136;53.172;8.256;2023-07-13T04:15:31;7.37;;;2.27;;
16063;SDS011;8136;53.172;8.256;2023-07-13T04:18:00;5.97;;;2.00;;
16063;SDS011;8136;53.172;8.256;2023-07-13T04:20:29;7.47;;;2.10;;
16063;SDS011;8136;53.172;8.256;2023-07-13T04:22:56;3.63;;;1.77;;
16063;SDS011;8136;53.172;8.256;2023-07-13T04:25:23;4.53;;;1.67;;
16063;SDS011;8136;53.172;8.256;2023-07-13T04:27:50;15.23;;;2.23;;
16063;SDS011;8136;53.172;8.256;2023-07-13T04:30:17;5.63;;;2.00;;
16063;SDS011;8136;53.172;8.256;2023-07-13T04:32:44;5.07;;;2.10;;
16063;SDS011;8136;53.172;8.256;2023-07-13T04:35:13;5.20;;;1.77;;
16063;SDS011;8136;53.172;8.256;2023-07-13T04:37:40;4.40;;;2.07;;
16063;SDS011;8136;53.172;8.256;2023-07-13T04:40:07;2.87;;;1.47;;
16063;SDS011;8136;53.172;8.256;2023-07-13T04:42:37;5.57;;;2.10;;
16063;SDS011;8136;53.172;8.256;2023-07-13T04:45:04;5.03;;;2.07;;
16063;SDS011;8136;53.172;8.256;2023-07-13T04:47:32;5.80;;;2.00;;
16063;SDS011;8136;53.172;8.256;2023-07-13T04:49:58;5.23;;;1.87;;
16063;SDS011;8136;53.172;8.256;2023-07-13T04:52:27;6.37;;;2.13;;
16063;SDS011;8136;53.172;8.256;2023-07-13T04:54:53;4.03;;;1.60;;
16063;SDS011;8136;53.172;8.256;2023-07-13T04:57:20;3.57;;;2.23;;
16063;SDS011;8136;53.172;8.256;2023-07-13T04:59:47;8.40;;;2.20;;
16063;SDS011;8136;53.172;8.256;2023-07-13T05:02:14;6.73;;;1.60;;
16063;SDS011;8136;53.172;8.256;2023-07-13T05:04:41;7.20;;;2.20;;
16063;SDS011;8136;53.172;8.256;2023-07-13T05:07:08;4.13;;;2.23;;
16063;SDS011;8136;53.172;8.256;2023-07-13T05:09:36;5.43;;;2.13;;
16063;SDS011;8136;53.172;8.256;2023-07-13T05:12:05;6.87;;;2.10;;
16063;SDS011;8136;53.172;8.256;2023-07-13T05:14:32;8.90;;;2.67;;
16063;SDS011;8136;53.172;8.256;2023-07-13T05:16:59;4.73;;;2.03;;
16063;SDS011;8136;53.172;8.256;2023-07-13T05:19:26;6.57;;;1.90;;
16063;SDS011;8136;53.172;8.256;2023-07-13T05:21:53;3.40;;;1.63;;
16063;SDS011;8136;53.172;8.256;2023-07-13T05:24:20;5.00;;;1.77;;
16063;SDS011;8136;53.172;8.256;2023-07-13T05:26:54;6.40;;;2.30;;
16063;SDS011;8136;53.172;8.256;2023-07-13T05:29:21;3.73;;;1.97;;
16063;SDS011;8136;53.172;8.256;2023-07-13T05:31:56;3.60;;;2.20;;
16063;SDS011;8136;53.172;8.256;2023-07-13T05:34:22;7.17;;;2.27;;
16063;SDS011;8136;53.172;8.256;2023-07-13T05:36:50;5.17;;;2.03;;
16063;SDS011;8136;53.172;8.256;2023-07-13T05:39:17;8.53;;;1.97;;
16063;SDS011;8136;53.172;8.256;2023-07-13T05:41:44;4.47;;;2.00;;
16063;SDS011;8136;53.172;8.256;2023-07-13T05:44:12;5.73;;;2.00;;
16063;SDS011;8136;53.172;8.256;2023-07-13T05:46:39;5.33;;;1.80;;
16063;SDS011;8136;53.172;8.256;2023-07-13T05:49:08;4.07;;;2.83;;
16063;SDS011;8136;53.172;8.256;2023-07-13T05:52:31;4.37;;;2.50;;
16063;SDS011;8136;53.172;8.256;2023-07-13T05:54:58;5.97;;;2.70;;
16063;SDS011;8136;53.172;8.256;2023-07-13T06:00:57;7.47;;;2.70;;
16063;SDS011;8136;53.172;8.256;2023-07-13T06:03:25;6.47;;;2.37;;
16063;SDS011;8136;53.172;8.256;2023-07-13T06:05:52;7.27;;;2.57;;
16063;SDS011;8136;53.172;8.256;2023-07-13T06:08:19;6.93;;;2.20;;
16063;SDS011;8136;53.172;8.256;2023-07-13T06:10:46;4.90;;;1.93;;
16063;SDS011;8136;53.172;8.256;2023-07-13T06:13:13;6.57;;;2.40;;
16063;SDS011;8136;53.172;8.256;2023-07-13T06:15:39;7.37;;;2.20;;
16063;SDS011;8136;53.172;8.256;2023-07-13T06:18:07;7.10;;;2.73;;
16063;SDS011;8136;53.172;8.256;2023-07-13T06:20:34;7.90;;;2.50;;
16063;SDS011;8136;53.172;8.256;2023-07-13T06:23:01;5.13;;;2.10;;
16063;SDS011;8136;53.172;8.256;2023-07-13T06:25:28;5.97;;;2.27;;
16063;SDS011;8136;53.172;8.256;2023-07-13T06:27:54;6.10;;;2.10;;
16063;SDS011;8136;53.172;8.256;2023-07-13T06:30:21;7.00;;;2.10;;
16063;SDS011;8136;53.172;8.256;2023-07-13T06:32:49;4.57;;;2.40;;
16063;SDS011;8136;53.172;8.256;2023-07-13T06:35:17;6.40;;;2.40;;
16063;SDS011;8136;53.172;8.256;2023-07-13T06:37:44;5.63;;;2.47;;
16063;SDS011;8136;53.172;8.256;2023-07-13T06:40:12;4.57;;;2.57;;
16063;SDS011;8136;53.172;8.256;2023-07-13T06:42:39;5.03;;;2.63;;
16063;SDS011;8136;53.172;8.256;2023-07-13T06:45:06;8.03;;;3.10;;
16063;SDS011;8136;53.172;8.256;2023-07-13T06:47:33;10.53;;;2.33;;
16063;SDS011;8136;53.172;8.256;2023-07-13T06:50:00;4.13;;;2.73;;
16063;SDS011;8136;53.172;8.256;2023-07-13T06:52:28;4.83;;;2.20;;
16063;SDS011;8136;53.172;8.256;2023-07-13T06:54:54;9.97;;;3.30;;
16063;SDS011;8136;53.172;8.256;2023-07-13T06:57:21;5.40;;;2.20;;
16063;SDS011;8136;53.172;8.256;2023-07-13T06:59:48;8.37;;;2.70;;
16063;SDS011;8136;53.172;8.256;2023-07-13T07:02:15;8.90;;;2.43;;
16063;SDS011;8136;53.172;8.256;2023-07-13T07:04:41;7.10;;;2.67;;
16063;SDS011;8136;53.172;8.256;2023-07-13T07:07:08;7.77;;;2.43;;
16063;SDS011;8136;53.172;8.256;2023-07-13T07:09:36;6.83;;;2.90;;
16063;SDS011;8136;53.172;8.256;2023-07-13T07:12:03;3.60;;;2.37;;
16063;SDS011;8136;53.172;8.256;2023-07-13T07:14:31;6.13;;;2.83;;
16063;SDS011;8136;53.172;8.256;2023-07-13T07:16:59;4.30;;;1.93;;
16063;SDS011;8136;53.172;8.256;2023-07-13T07:19:26;6.03;;;2.47;;
16063;SDS011;8136;53.172;8.256;2023-07-13T07:21:53;6.03;;;2.37;;
16063;SDS011;8136;53.172;8.256;2023-07-13T07:24:20;7.50;;;2.33;;
16063;SDS011;8136;53.172;8.256;2023-07-13T07:26:48;4.73;;;3.00;;
16063;SDS011;8136;53.172;8.256;2023-07-13T07:29:15;7.10;;;2.80;;
16063;SDS011;8136;53.172;8.256;2023-07-13T07:31:41;8.03;;;2.63;;
16063;SDS011;8136;53.172;8.256;2023-07-13T07:34:08;11.10;;;2.80;;
16063;SDS011;8136;53.172;8.256;2023-07-13T07:36:35;10.40;;;2.97;;
16063;SDS011;8136;53.172;8.256;2023-07-13T07:39:02;7.20;;;2.30;;
16063;SDS011;8136;53.172;8.256;2023-07-13T07:41:29;5.53;;;2.47;;
16063;SDS011;8136;53.172;8.256;2023-07-13T07:43:57;5.73;;;2.57;;
16063;SDS011;8136;53.172;8.256;2023-07-13T07:46:24;6.80;;;2.60;;
16063;SDS011;8136;53.172;8.256;2023-07-13T07:48:51;5.73;;;2.40;;
16063;SDS011;8136;53.172;8.256;2023-07-13T07:51:18;5.67;;;2.17;;
16063;SDS011;8136;53.172;8.256;2023-07-13T07:53:45;9.60;;;2.73;;
16063;SDS011;8136;53.172;8.256;2023-07-13T07:56:11;4.70;;;2.67;;
16063;SDS011;8136;53.172;8.256;2023-07-13T07:58:38;4.93;;;2.53;;
16063;SDS011;8136;53.172;8.256;2023-07-13T08:01:06;4.03;;;2.40;;
16063;SDS011;8136;53.172;8.256;2023-07-13T08:03:33;5.17;;;2.10;;
16063;SDS011;8136;53.172;8.256;2023-07-13T08:06:00;8.07;;;2.20;;
16063;SDS011;8136;53.172;8.256;2023-07-13T08:08:27;7.73;;;2.73;;
16063;SDS011;8136;53.172;8.256;2023-07-13T08:10:54;3.27;;;1.77;;
16063;SDS011;8136;53.172;8.256;2023-07-13T08:13:20;6.33;;;2.13;;
16063;SDS011;8136;53.172;8.256;2023-07-13T08:15:47;5.90;;;2.13;;
16063;SDS011;8136;53.172;8.256;2023-07-13T08:18:16;4.00;;;2.77;;
16063;SDS011;8136;53.172;8.256;2023-07-13T08:20:43;5.67;;;1.87;;
16063;SDS011;8136;53.172;8.256;2023-07-13T08:23:10;5.63;;;2.30;;
16063;SDS011;8136;53.172;8.256;2023-07-13T08:25:37;4.57;;;2.10;;
16063;SDS011;8136;53.172;8.256;2023-07-13T08:28:04;5.67;;;2.00;;
16063;SDS011;8136;53.172;8.256;2023-07-13T08:30:31;4.63;;;2.17;;
16063;SDS011;8136;53.172;8.256;2023-07-13T08:32:58;2.50;;;1.73;;
16063;SDS011;8136;53.172;8.256;2023-07-13T08:35:44;7.67;;;2.07;;
16063;SDS011;8136;53.172;8.256;2023-07-13T08:38:16;7.07;;;1.77;;
16063;SDS011;8136;53.172;8.256;2023-07-13T08:40:51;4.60;;;1.70;;
16063;SDS011;8136;53.172;8.256;2023-07-13T08:43:20;4.73;;;1.90;;
16063;SDS011;8136;53.172;8.256;2023-07-13T08:45:52;4.63;;;1.70;;
16063;SDS011;8136;53.172;8.256;2023-07-13T08:48:31;4.70;;;1.60;;
16063;SDS011;8136;53.172;8.256;2023-07-13T08:51:14;4.27;;;1.63;;
16063;SDS011;8136;53.172;8.256;2023-07-13T08:53:54;2.43;;;1.30;;
16063;SDS011;8136;53.172;8.256;2023-07-13T08:56:34;3.00;;;1.50;;
16063;SDS011;8136;53.172;8.256;2023-07-13T08:59:30;2.60;;;1.47;;
16063;SDS011;8136;53.172;8.256;2023-07-13T09:02:28;2.53;;;1.40;;
16063;SDS011;8136;53.172;8.256;2023-07-13T09:05:08;2.57;;;1.30;;
16063;SDS011;8136;53.172;8.256;2023-07-13T09:10:36;3.53;;;1.30;;
16063;SDS011;8136;53.172;8.256;2023-07-13T09:13:12;3.07;;;1.20;;
16063;SDS011;8136;53.172;8.256;2023-07-13T09:15:59;5.40;;;1.47;;
16063;SDS011;8136;53.172;8.256;2023-07-13T09:18:42;4.80;;;1.60;;
16063;SDS011;8136;53.172;8.256;2023-07-13T09:21:16;4.57;;;1.50;;
16063;SDS011;8136;53.172;8.256;2023-07-13T09:23:49;2.20;;;1.23;;
16063;SDS011;8136;53.172;8.256;2023-07-13T09:29:10;4.60;;;1.67;;
16063;SDS011;8136;53.172;8.256;2023-07-13T09:31:41;2.70;;;1.37;;
16063;SDS011;8136;53.172;8.256;2023-07-13T09:34:13;4.80;;;1.60;;
16063;SDS011;8136;53.172;8.256;2023-07-13T09:36:40;3.30;;;1.83;;
16063;SDS011;8136;53.172;8.256;2023-07-13T09:42:33;1.20;;;1.07;;
16063;SDS011;8136;53.172;8.256;2023-07-13T09:45:03;2.47;;;1.13;;
16063;SDS011;8136;53.172;8.256;2023-07-13T09:47:38;3.97;;;1.57;;
16063;SDS011;8136;53.172;8.256;2023-07-13T09:50:06;5.43;;;1.60;;
16063;SDS011;8136;53.172;8.256;2023-07-13T09:56:00;2.90;;;1.50;;
16063;SDS011;8136;53.172;8.256;2023-07-13T09:58:29;2.03;;;1.53;;
16063;SDS011;8136;53.172;8.256;2023-07-13T10:03:30;4.20;;;1.43;;
16063;SDS011;8136;53.172;8.256;2023-07-13T10:06:09;3.20;;;1.67;;
16063;SDS011;8136;53.172;8.256;2023-07-13T10:09:09;7.13;;;1.70;;
16063;SDS011;8136;53.172;8.256;2023-07-13T10:11:45;3.00;;;1.20;;
16063;SDS011;8136;53.172;8.256;2023-07-13T10:23:21;5.17;;;1.47;;
16063;SDS011;8136;53.172;8.256;2023-07-13T10:25:55;4.33;;;1.70;;
16063;SDS011;8136;53.172;8.256;2023-07-13T10:28:32;4.20;;;1.60;;
16063;SDS011;8136;53.172;8.256;2023-07-13T10:31:08;4.13;;;1.53;;
16063;SDS011;8136;53.172;8.256;2023-07-13T10:33:50;4.40;;;1.43;;
16063;SDS011;8136;53.172;8.256;2023-07-13T10:36:22;2.47;;;1.30;;
16063;SDS011;8136;53.172;8.256;2023-07-13T10:39:13;5.23;;;1.57;;
16063;SDS011;8136;53.172;8.256;2023-07-13T10:41:58;5.30;;;1.60;;
16063;SDS011;8136;53.172;8.256;2023-07-13T10:44:34;3.17;;;1.47;;
16063;SDS011;8136;53.172;8.256;2023-07-13T10:47:03;3.27;;;1.70;;
16063;SDS011;8136;53.172;8.256;2023-07-13T10:49:38;3.03;;;1.70;;
16063;SDS011;8136;53.172;8.256;2023-07-13T10:58:21;3.93;;;2.20;;
16063;SDS011;8136;53.172;8.256;2023-07-13T11:01:01;1.90;;;1.30;;
16063;SDS011;8136;53.172;8.256;2023-07-13T11:06:43;2.77;;;1.00;;
16063;SDS011;8136;53.172;8.256;2023-07-13T11:12:53;2.03;;;0.80;;
16063;SDS011;8136;53.172;8.256;2023-07-13T11:15:27;2.57;;;0.80;;
16063;SDS011;8136;53.172;8.256;2023-07-13T11:18:02;0.97;;;0.70;;
16063;SDS011;8136;53.172;8.256;2023-07-13T11:20:41;0.80;;;0.50;;
16063;SDS011;8136;53.172;8.256;2023-07-13T11:23:15;2.57;;;0.90;;
16063;SDS011;8136;53.172;8.256;2023-07-13T11:25:53;0.80;;;0.73;;
16063;SDS011;8136;53.172;8.256;2023-07-13T11:28:27;1.20;;;0.90;;
16063;SDS011;8136;53.172;8.256;2023-07-13T11:33:56;1.07;;;0.87;;
16063;SDS011;8136;53.172;8.256;2023-07-13T11:36:29;1.27;;;0.80;;
16063;SDS011;8136;53.172;8.256;2023-07-13T11:39:04;4.23;;;1.20;;
16063;SDS011;8136;53.172;8.256;2023-07-13T11:41:43;1.30;;;1.20;;
16063;SDS011;8136;53.172;8.256;2023-07-13T11:44:23;1.00;;;0.90;;
16063;SDS011;8136;53.172;8.256;2023-07-13T11:47:14;1.97;;;1.20;;
16063;SDS011;8136;53.172;8.256;2023-07-13T11:53:16;1.37;;;1.27;;
16063;SDS011;8136;53.172;8.256;2023-07-13T11:55:43;1.90;;;1.30;;
16063;SDS011;8136;53.172;8.256;2023-07-13T11:58:14;1.57;;;1.30;;
16063;SDS011;8136;53.172;8.256;2023-07-13T12:04:08;3.20;;;1.60;;
16063;SDS011;8136;53.172;8.256;2023-07-13T12:09:15;1.43;;;1.27;;
16063;SDS011;8136;53.172;8.256;2023-07-13T12:11:42;1.30;;;1.00;;
16063;SDS011;8136;53.172;8.256;2023-07-13T12:14:13;2.63;;;1.37;;
16063;SDS011;8136;53.172;8.256;2023-07-13T12:16:41;1.53;;;1.20;;
16063;SDS011;8136;53.172;8.256;2023-07-13T12:19:14;1.97;;;1.37;;
16063;SDS011;8136;53.172;8.256;2023-07-13T12:21:47;2.63;;;1.47;;
16063;SDS011;8136;53.172;8.256;2023-07-13T12:24:15;2.27;;;1.13;;
16063;SDS011;8136;53.172;8.256;2023-07-13T12:26:48;2.00;;;1.23;;
16063;SDS011;8136;53.172;8.256;2023-07-13T12:29:20;2.67;;;1.57;;
16063;SDS011;8136;53.172;8.256;2023-07-13T12:31:49;3.23;;;1.40;;
16063;SDS011;8136;53.172;8.256;2023-07-13T12:34:19;1.60;;;1.27;;
16063;SDS011;8136;53.172;8.256;2023-07-13T12:36:48;1.97;;;1.47;;
16063;SDS011;8136;53.172;8.256;2023-07-13T12:39:24;2.47;;;1.50;;
16063;SDS011;8136;53.172;8.256;2023-07-13T12:42:00;2.87;;;1.20;;
16063;SDS011;8136;53.172;8.256;2023-07-13T12:44:42;1.37;;;1.10;;
16063;SDS011;8136;53.172;8.256;2023-07-13T12:47:12;2.07;;;1.27;;
16063;SDS011;8136;53.172;8.256;2023-07-13T12:49:41;2.03;;;1.33;;
16063;SDS011;8136;53.172;8.256;2023-07-13T12:52:10;2.67;;;1.10;;
16063;SDS011;8136;53.172;8.256;2023-07-13T12:54:42;2.27;;;1.20;;
16063;SDS011;8136;53.172;8.256;2023-07-13T12:57:22;1.93;;;1.20;;
16063;SDS011;8136;53.172;8.256;2023-07-13T12:59:51;3.80;;;1.20;;
16063;SDS011;8136;53.172;8.256;2023-07-13T13:02:22;2.70;;;1.30;;
16063;SDS011;8136;53.172;8.256;2023-07-13T13:04:54;4.07;;;1.30;;
16063;SDS011;8136;53.172;8.256;2023-07-13T13:07:21;3.83;;;1.10;;
16063;SDS011;8136;53.172;8.256;2023-07-13T13:09:50;1.37;;;1.27;;
16063;SDS011;8136;53.172;8.256;2023-07-13T13:12:21;2.67;;;0.90;;
16063;SDS011;8136;53.172;8.256;2023-07-13T13:14:51;1.10;;;1.00;;
16063;SDS011;8136;53.172;8.256;2023-07-13T13:17:19;2.87;;;1.23;;
16063;SDS011;8136;53.172;8.256;2023-07-13T13:19:49;3.70;;;1.30;;
16063;SDS011;8136;53.172;8.256;2023-07-13T13:22:18;2.17;;;1.40;;
16063;SDS011;8136;53.172;8.256;2023-07-13T13:24:44;2.27;;;1.30;;
16063;SDS011;8136;53.172;8.256;2023-07-13T13:27:15;1.80;;;0.90;;
16063;SDS011;8136;53.172;8.256;2023-07-13T13:29:43;4.33;;;1.43;;
16063;SDS011;8136;53.172;8.256;2023-07-13T13:32:11;1.67;;;1.20;;
16063;SDS011;8136;53.172;8.256;2023-07-13T13:34:39;3.00;;;1.20;;
16063;SDS011;8136;53.172;8.256;2023-07-13T13:37:09;1.50;;;0.93;;
16063;SDS011;8136;53.172;8.256;2023-07-13T13:39:43;1.43;;;1.00;;
16063;SDS011;8136;53.172;8.256;2023-07-13T13:42:10;2.57;;;1.30;;
16063;SDS011;8136;53.172;8.256;2023-07-13T13:44:41;1.83;;;0.90;;
16063;SDS011;8136;53.172;8.256;2023-07-13T13:47:13;1.13;;;1.00;;
16063;SDS011;8136;53.172;8.256;2023-07-13T13:49:51;2.23;;;0.87;;
16063;SDS011;8136;53.172;8.256;2023-07-13T13:52:18;3.30;;;0.90;;
16063;SDS011;8136;53.172;8.256;2023-07-13T13:54:45;1.63;;;0.97;;
16063;SDS011;8136;53.172;8.256;2023-07-13T13:57:12;2.40;;;1.30;;
16063;SDS011;8136;53.172;8.256;2023-07-13T13:59:38;1.00;;;0.90;;
16063;SDS011;8136;53.172;8.256;2023-07-13T14:02:14;2.33;;;1.13;;
16063;SDS011;8136;53.172;8.256;2023-07-13T14:04:50;3.53;;;1.00;;
16063;SDS011;8136;53.172;8.256;2023-07-13T14:07:21;2.13;;;1.10;;
16063;SDS011;8136;53.172;8.256;2023-07-13T14:09:47;2.03;;;1.00;;
16063;SDS011;8136;53.172;8.256;2023-07-13T14:12:15;1.47;;;1.00;;
16063;SDS011;8136;53.172;8.256;2023-07-13T14:14:43;3.73;;;1.33;;
16063;SDS011;8136;53.172;8.256;2023-07-13T14:17:14;1.73;;;1.20;;
16063;SDS011;8136;53.172;8.256;2023-07-13T14:19:48;3.00;;;1.50;;
16063;SDS011;8136;53.172;8.256;2023-07-13T14:22:16;3.10;;;1.70;;
16063;SDS011;8136;53.172;8.256;2023-07-13T14:24:43;3.80;;;1.50;;
16063;SDS011;8136;53.172;8.256;2023-07-13T14:27:10;1.83;;;1.30;;
16063;SDS011;8136;53.172;8.256;2023-07-13T14:29:37;2.77;;;1.50;;
16063;SDS011;8136;53.172;8.256;2023-07-13T14:32:07;4.27;;;1.87;;
16063;SDS011;8136;53.172;8.256;2023-07-13T14:34:36;4.77;;;1.87;;
16063;SDS011;8136;53.172;8.256;2023-07-13T14:37:03;5.27;;;1.77;;
16063;SDS011;8136;53.172;8.256;2023-07-13T14:39:30;4.10;;;1.30;;
16063;SDS011;8136;53.172;8.256;2023-07-13T14:41:57;3.03;;;1.50;;
16063;SDS011;8136;53.172;8.256;2023-07-13T14:44:25;3.10;;;1.63;;
16063;SDS011;8136;53.172;8.256;2023-07-13T14:46:54;1.80;;;1.63;;
16063;SDS011;8136;53.172;8.256;2023-07-13T14:49:27;1.73;;;1.60;;
16063;SDS011;8136;53.172;8.256;2023-07-13T14:51:56;1.83;;;1.00;;
16063;SDS011;8136;53.172;8.256;2023-07-13T14:54:24;2.53;;;1.10;;
16063;SDS011;8136;53.172;8.256;2023-07-13T14:56:51;2.13;;;1.23;;
16063;SDS011;8136;53.172;8.256;2023-07-13T14:59:18;2.10;;;1.60;;
16063;SDS011;8136;53.172;8.256;2023-07-13T15:01:45;2.00;;;1.60;;
16063;SDS011;8136;53.172;8.256;2023-07-13T15:04:13;2.90;;;1.20;;
16063;SDS011;8136;53.172;8.256;2023-07-13T15:06:54;1.70;;;1.60;;
16063;SDS011;8136;53.172;8.256;2023-07-13T15:09:23;1.07;;;0.93;;
16063;SDS011;8136;53.172;8.256;2023-07-13T15:11:51;1.87;;;1.50;;
16063;SDS011;8136;53.172;8.256;2023-07-13T15:14:18;2.33;;;1.30;;
16063;SDS011;8136;53.172;8.256;2023-07-13T15:16:45;2.20;;;1.20;;
16063;SDS011;8136;53.172;8.256;2023-07-13T15:19:13;3.20;;;1.40;;
16063;SDS011;8136;53.172;8.256;2023-07-13T15:21:41;2.53;;;1.37;;
16063;SDS011;8136;53.172;8.256;2023-07-13T15:24:09;3.70;;;1.30;;
16063;SDS011;8136;53.172;8.256;2023-07-13T15:26:37;2.77;;;1.30;;
16063;SDS011;8136;53.172;8.256;2023-07-13T15:29:04;2.60;;;1.10;;
16063;SDS011;8136;53.172;8.256;2023-07-13T15:31:31;1.17;;;0.90;;
16063;SDS011;8136;53.172;8.256;2023-07-13T15:34:03;0.83;;;0.77;;
16063;SDS011;8136;53.172;8.256;2023-07-13T15:36:37;0.77;;;0.70;;
16063;SDS011;8136;53.172;8.256;2023-07-13T15:39:04;0.97;;;0.70;;
16063;SDS011;8136;53.172;8.256;2023-07-13T15:41:33;3.57;;;0.80;;
16063;SDS011;8136;53.172;8.256;2023-07-13T15:44:00;1.63;;;0.63;;
16063;SDS011;8136;53.172;8.256;2023-07-13T15:46:45;1.17;;;0.73;;
16063;SDS011;8136;53.172;8.256;2023-07-13T15:49:11;1.57;;;0.60;;
16063;SDS011;8136;53.172;8.256;2023-07-13T15:51:38;1.23;;;0.70;;
16063;SDS011;8136;53.172;8.256;2023-07-13T15:54:05;0.73;;;0.60;;
16063;SDS011;8136;53.172;8.256;2023-07-13T15:56:38;2.10;;;0.70;;
16063;SDS011;8136;53.172;8.256;2023-07-13T15:59:06;0.63;;;0.50;;
16063;SDS011;8136;53.172;8.256;2023-07-13T16:01:37;3.03;;;1.00;;
16063;SDS011;8136;53.172;8.256;2023-07-13T16:04:06;1.20;;;0.80;;
16063;SDS011;8136;53.172;8.256;2023-07-13T16:06:33;1.20;;;0.50;;
16063;SDS011;8136;53.172;8.256;2023-07-13T16:09:02;0.70;;;0.60;;
16063;SDS011;8136;53.172;8.256;2023-07-13T16:11:32;1.70;;;0.67;;